Time,TemperatureF,DewpointF,PressureIn,WindDirection,WindDirectionDegrees,WindSpeedMPH,WindSpeedGustMPH,Humidity,HourlyPrecipIn,Conditions,Clouds,dailyrainin,SoftwareType,DateUTC
2013-08-03 00:02:00,71.5,44.5,30.09,NE,34,1.0,6.0,38,0.00,,,0.00,LWC V2.10 B1813,2013-08-03 08:02:00,
2013-08-03 00:07:00,71.5,44.5,30.09,NNE,32,1.0,3.0,38,0.00,,,0.00,LWC V2.10 B1813,2013-08-03 08:07:00,
2013-08-03 00:12:00,71.5,44.5,30.09,NNE,17,0.0,4.0,38,0.00,,,0.00,LWC V2.10 B1813,2013-08-03 08:12:00,
2013-08-03 00:17:00,71.4,44.5,30.09,NNE,21,1.0,2.0,38,0.00,,,0.00,LWC V2.10 B1813,2013-08-03 08:17:00,
2013-08-03 00:22:00,71.3,44.4,30.09,NNW,346,0.0,5.0,38,0.00,,,0.00,LWC V2.10 B1813,2013-08-03 08:22:00,
2013-08-03 00:27:00,71.2,45.0,30.08,NNE,30,0.0,3.0,39,0.00,,,0.00,LWC V2.10 B1813,2013-08-03 08:27:00,
2013-08-03 00:32:00,71.0,45.5,30.08,NNE,30,0.0,1.0,40,0.00,,,0.00,LWC V2.10 B1813,2013-08-03 08:32:00,
2013-08-03 00:37:00,70.8,44.6,30.08,NNE,27,4.0,4.0,39,0.00,,,0.00,LWC V2.10 B1813,2013-08-03 08:37:00,
2013-08-03 00:42:00,70.5,45.7,30.08,NNE,23,3.0,4.0,41,0.00,,,0.00,LWC V2.10 B1813,2013-08-03 08:42:00,
2013-08-03 00:47:00,70.3,44.8,30.08,NNE,22,0.0,3.0,40,0.00,,,0.00,LWC V2.10 B1813,2013-08-03 08:47:00,
2013-08-03 00:52:00,70.1,44.6,30.08,NNE,27,0.0,2.0,40,0.00,,,0.00,LWC V2.10 B1813,2013-08-03 08:52:00,
2013-08-03 00:57:00,70.1,44.6,30.08,NE,35,2.0,3.0,40,0.00,,,0.00,LWC V2.10 B1813,2013-08-03 08:57:00,
2013-08-03 01:02:00,69.9,44.5,30.08,NNE,32,1.0,3.0,40,0.00,,,0.00,LWC V2.10 B1813,2013-08-03 09:02:00,
2013-08-03 01:07:00,70.0,44.6,30.08,NNE,33,1.0,4.0,40,0.00,,,0.00,LWC V2.10 B1813,2013-08-03 09:07:00,
2013-08-03 01:12:00,70.1,44.6,30.08,NE,34,1.0,3.0,40,0.00,,,0.00,LWC V2.10 B1813,2013-08-03 09:12:00,
2013-08-03 01:17:00,70.1,44.6,30.08,NE,42,3.0,5.0,40,0.00,,,0.00,LWC V2.10 B1813,2013-08-03 09:17:00,
2013-08-03 01:22:00,70.3,44.8,30.08,NE,38,0.0,4.0,40,0.00,,,0.00,LWC V2.10 B1813,2013-08-03 09:22:00,
2013-08-03 01:27:00,70.5,45.0,30.07,NE,43,4.0,4.0,40,0.00,,,0.00,LWC V2.10 B1813,2013-08-03 09:27:00,
2013-08-03 01:32:00,70.6,45.1,30.07,NE,55,3.0,5.0,40,0.00,,,0.00,LWC V2.10 B1813,2013-08-03 09:32:00,
2013-08-03 01:37:00,70.8,45.3,30.07,NE,49,1.0,4.0,40,0.00,,,0.00,LWC V2.10 B1813,2013-08-03 09:37:00,
2013-08-03 01:42:00,70.9,45.4,30.07,NE,36,3.0,6.0,40,0.00,,,0.00,LWC V2.10 B1813,2013-08-03 09:42:00,
2013-08-03 01:47:00,71.2,45.0,30.07,ENE,68,1.0,5.0,39,0.00,,,0.00,LWC V2.10 B1813,2013-08-03 09:47:00,
2013-08-03 01:52:00,71.3,45.1,30.07,ENE,61,5.0,5.0,39,0.00,,,0.00,LWC V2.10 B1813,2013-08-03 09:52:00,
2013-08-03 01:57:00,71.3,45.1,30.07,ENE,72,3.0,8.0,39,0.00,,,0.00,LWC V2.10 B1813,2013-08-03 09:57:00,
2013-08-03 02:02:00,71.2,45.0,30.07,ENE,70,3.0,4.0,39,0.00,,,0.00,LWC V2.10 B1813,2013-08-03 10:02:00,
2013-08-03 02:07:00,70.8,45.3,30.07,ENE,71,1.0,2.0,40,0.00,,,0.00,LWC V2.10 B1813,2013-08-03 10:07:00,
2013-08-03 02:12:00,69.8,45.7,30.07,ENE,74,3.0,4.0,42,0.00,,,0.00,LWC V2.10 B1813,2013-08-03 10:12:00,
2013-08-03 02:17:00,69.0,45.6,30.07,ENE,68,3.0,4.0,43,0.00,,,0.00,LWC V2.10 B1813,2013-08-03 10:17:00,
2013-08-03 02:22:00,68.7,44.7,30.07,ENE,61,1.0,3.0,42,0.00,,,0.00,LWC V2.10 B1813,2013-08-03 10:22:00,
2013-08-03 02:27:00,68.6,45.2,30.06,ENE,71,3.0,4.0,43,0.00,,,0.00,LWC V2.10 B1813,2013-08-03 10:27:00,
2013-08-03 02:32:00,68.0,45.3,30.06,ENE,72,1.0,1.0,44,0.00,,,0.00,LWC V2.10 B1813,2013-08-03 10:32:00,
2013-08-03 02:37:00,67.7,45.0,30.06,ENE,64,3.0,4.0,44,0.00,,,0.00,LWC V2.10 B1813,2013-08-03 10:37:00,
2013-08-03 02:42:00,67.4,45.3,30.06,ENE,59,3.0,3.0,45,0.00,,,0.00,LWC V2.10 B1813,2013-08-03 10:42:00,
2013-08-03 02:47:00,67.2,45.1,30.06,ENE,59,1.0,3.0,45,0.00,,,0.00,LWC V2.10 B1813,2013-08-03 10:47:00,
2013-08-03 02:52:00,67.1,44.5,30.06,NE,56,4.0,4.0,44,0.00,,,0.00,LWC V2.10 B1813,2013-08-03 10:52:00,
2013-08-03 02:57:00,67.1,43.8,30.06,ENE,71,4.0,8.0,43,0.00,,,0.00,LWC V2.10 B1813,2013-08-03 10:57:00,
2013-08-03 03:02:00,67.8,43.9,30.06,ENE,70,3.0,6.0,42,0.00,,,0.00,LWC V2.10 B1813,2013-08-03 11:02:00,
2013-08-03 03:07:00,68.3,43.7,30.06,ENE,61,4.0,5.0,41,0.00,,,0.00,LWC V2.10 B1813,2013-08-03 11:07:00,
2013-08-03 03:12:00,68.5,43.2,30.06,ENE,67,4.0,6.0,40,0.00,,,0.00,LWC V2.10 B1813,2013-08-03 11:12:00,
2013-08-03 03:17:00,68.5,43.2,30.06,East,79,2.0,5.0,40,0.00,,,0.00,LWC V2.10 B1813,2013-08-03 11:17:00,
2013-08-03 03:22:00,68.6,43.3,30.06,ENE,63,4.0,5.0,40,0.00,,,0.00,LWC V2.10 B1813,2013-08-03 11:22:00,
2013-08-03 03:27:00,68.5,42.6,30.06,East,88,3.0,7.0,39,0.00,,,0.00,LWC V2.10 B1813,2013-08-03 11:27:00,
2013-08-03 03:32:00,68.3,42.4,30.06,East,94,5.0,7.0,39,0.00,,,0.00,LWC V2.10 B1813,2013-08-03 11:32:00,
2013-08-03 03:37:00,68.3,41.7,30.06,East,92,5.0,7.0,38,0.00,,,0.00,LWC V2.10 B1813,2013-08-03 11:37:00,
2013-08-03 03:42:00,68.2,41.6,30.06,ENE,66,3.0,7.0,38,0.00,,,0.00,LWC V2.10 B1813,2013-08-03 11:42:00,
2013-08-03 03:47:00,68.2,40.9,30.06,ENE,60,4.0,6.0,37,0.00,,,0.00,LWC V2.10 B1813,2013-08-03 11:47:00,
2013-08-03 03:52:00,68.2,40.2,30.06,ENE,63,5.0,8.0,36,0.00,,,0.00,LWC V2.10 B1813,2013-08-03 11:52:00,
2013-08-03 03:57:00,68.2,40.2,30.06,East,95,5.0,6.0,36,0.00,,,0.00,LWC V2.10 B1813,2013-08-03 11:57:00,
2013-08-03 04:02:00,68.0,40.0,30.06,East,80,3.0,7.0,36,0.00,,,0.00,LWC V2.10 B1813,2013-08-03 12:02:00,
2013-08-03 04:07:00,67.6,39.7,30.06,East,87,2.0,5.0,36,0.00,,,0.00,LWC V2.10 B1813,2013-08-03 12:07:00,
2013-08-03 04:12:00,67.2,40.0,30.05,ENE,76,1.0,4.0,37,0.00,,,0.00,LWC V2.10 B1813,2013-08-03 12:12:00,
2013-08-03 04:17:00,66.9,39.8,30.06,ESE,109,3.0,7.0,37,0.00,,,0.00,LWC V2.10 B1813,2013-08-03 12:17:00,
2013-08-03 04:22:00,66.6,39.5,30.06,East,87,5.0,6.0,37,0.00,,,0.00,LWC V2.10 B1813,2013-08-03 12:22:00,
2013-08-03 04:27:00,66.4,39.3,30.06,ESE,104,3.0,5.0,37,0.00,,,0.00,LWC V2.10 B1813,2013-08-03 12:27:00,
2013-08-03 04:32:00,66.2,39.2,30.06,East,86,6.0,6.0,37,0.00,,,0.00,LWC V2.10 B1813,2013-08-03 12:32:00,
2013-08-03 04:37:00,66.0,39.0,30.06,NE,56,2.0,5.0,37,0.00,,,0.00,LWC V2.10 B1813,2013-08-03 12:37:00,
2013-08-03 04:42:00,65.8,38.8,30.05,East,99,5.0,5.0,37,0.00,,,0.00,LWC V2.10 B1813,2013-08-03 12:42:00,
2013-08-03 04:47:00,65.6,38.6,30.06,East,90,0.0,5.0,37,0.00,,,0.00,LWC V2.10 B1813,2013-08-03 12:47:00,
2013-08-03 04:52:00,65.5,37.8,30.05,ESE,109,0.0,3.0,36,0.00,,,0.00,LWC V2.10 B1813,2013-08-03 12:52:00,
2013-08-03 04:57:00,65.4,38.4,30.05,ESE,109,0.0,1.0,37,0.00,,,0.00,LWC V2.10 B1813,2013-08-03 12:57:00,
2013-08-03 05:02:00,65.2,40.3,30.05,ESE,109,0.0,3.0,40,0.00,,,0.00,LWC V2.10 B1813,2013-08-03 13:02:00,
2013-08-03 05:07:00,64.8,38.6,30.05,ESE,109,0.0,1.0,38,0.00,,,0.00,LWC V2.10 B1813,2013-08-03 13:07:00,
2013-08-03 05:12:00,64.4,39.5,30.05,ESE,109,0.0,1.0,40,0.00,,,0.00,LWC V2.10 B1813,2013-08-03 13:12:00,
2013-08-03 05:17:00,63.9,39.7,30.05,ESE,109,0.0,1.0,41,0.00,,,0.00,LWC V2.10 B1813,2013-08-03 13:17:00,
2013-08-03 05:22:00,63.4,38.0,30.05,ESE,109,2.0,2.0,39,0.00,,,0.00,LWC V2.10 B1813,2013-08-03 13:22:00,
2013-08-03 05:27:00,63.3,37.9,30.05,ESE,109,1.0,3.0,39,0.00,,,0.00,LWC V2.10 B1813,2013-08-03 13:27:00,
2013-08-03 05:32:00,63.5,39.4,30.05,ESE,107,0.0,2.0,41,0.00,,,0.00,LWC V2.10 B1813,2013-08-03 13:32:00,
2013-08-03 05:37:00,63.4,37.3,30.05,East,100,3.0,5.0,38,0.00,,,0.00,LWC V2.10 B1813,2013-08-03 13:37:00,
2013-08-03 05:42:00,63.6,37.5,30.05,ESE,102,0.0,1.0,38,0.00,,,0.00,LWC V2.10 B1813,2013-08-03 13:42:00,
2013-08-03 05:47:00,63.8,38.4,30.05,East,95,0.0,2.0,39,0.00,,,0.00,LWC V2.10 B1813,2013-08-03 13:47:00,
2013-08-03 05:52:00,63.7,39.6,30.05,East,95,0.0,0.0,41,0.00,,,0.00,LWC V2.10 B1813,2013-08-03 13:52:00,
2013-08-03 05:57:00,63.5,38.7,30.05,East,95,0.0,1.0,40,0.00,,,0.00,LWC V2.10 B1813,2013-08-03 13:57:00,
2013-08-03 06:02:00,63.4,38.7,30.04,East,79,0.0,1.0,40,0.00,,,0.00,LWC V2.10 B1813,2013-08-03 14:02:00,
2013-08-03 06:07:00,63.3,37.3,30.04,ENE,75,0.0,3.0,38,0.00,,,0.00,LWC V2.10 B1813,2013-08-03 14:07:00,
2013-08-03 06:12:00,63.3,37.3,30.04,ENE,72,1.0,3.0,38,0.00,,,0.00,LWC V2.10 B1813,2013-08-03 14:12:00,
2013-08-03 06:17:00,63.5,37.4,30.04,ENE,72,0.0,2.0,38,0.00,,,0.00,LWC V2.10 B1813,2013-08-03 14:17:00,
2013-08-03 06:22:00,63.6,38.2,30.04,ENE,72,3.0,3.0,39,0.00,,,0.00,LWC V2.10 B1813,2013-08-03 14:22:00,
2013-08-03 06:27:00,63.8,39.0,30.04,ENE,72,0.0,1.0,40,0.00,,,0.00,LWC V2.10 B1813,2013-08-03 14:27:00,
2013-08-03 06:32:00,63.8,39.0,30.04,ENE,73,0.0,1.0,40,0.00,,,0.00,LWC V2.10 B1813,2013-08-03 14:32:00,
2013-08-03 06:37:00,63.7,38.9,30.03,ENE,69,1.0,1.0,40,0.00,,,0.00,LWC V2.10 B1813,2013-08-03 14:37:00,
2013-08-03 06:42:00,63.6,38.8,30.03,NNE,26,0.0,1.0,40,0.00,,,0.00,LWC V2.10 B1813,2013-08-03 14:42:00,
2013-08-03 06:47:00,63.4,38.0,30.03,NNE,26,1.0,1.0,39,0.00,,,0.00,LWC V2.10 B1813,2013-08-03 14:47:00,
2013-08-03 06:52:00,63.3,38.6,30.03,NNE,27,0.0,0.0,40,0.00,,,0.00,LWC V2.10 B1813,2013-08-03 14:52:00,
2013-08-03 06:57:00,63.2,37.8,30.03,NNE,26,0.0,1.0,39,0.00,,,0.00,LWC V2.10 B1813,2013-08-03 14:57:00,
2013-08-03 07:02:00,63.1,37.7,30.03,NNE,26,0.0,1.0,39,0.00,,,0.00,LWC V2.10 B1813,2013-08-03 15:02:00,
2013-08-03 07:07:00,63.2,37.8,30.03,NNE,27,0.0,1.0,39,0.00,,,0.00,LWC V2.10 B1813,2013-08-03 15:07:00,
2013-08-03 07:12:00,63.5,39.4,30.03,NNE,27,0.0,2.0,41,0.00,,,0.00,LWC V2.10 B1813,2013-08-03 15:12:00,
2013-08-03 07:17:00,64.1,38.6,30.02,NE,49,4.0,5.0,39,0.00,,,0.00,LWC V2.10 B1813,2013-08-03 15:17:00,
2013-08-03 07:22:00,65.0,38.8,30.02,ENE,65,3.0,4.0,38,0.00,,,0.00,LWC V2.10 B1813,2013-08-03 15:22:00,
2013-08-03 07:27:00,65.5,39.2,30.02,ENE,63,2.0,4.0,38,0.00,,,0.00,LWC V2.10 B1813,2013-08-03 15:27:00,
2013-08-03 07:32:00,65.4,39.8,30.02,ENE,63,1.0,2.0,39,0.00,,,0.00,LWC V2.10 B1813,2013-08-03 15:32:00,
2013-08-03 07:37:00,65.1,38.9,30.02,ENE,68,1.0,4.0,38,0.00,,,0.00,LWC V2.10 B1813,2013-08-03 15:37:00,
2013-08-03 07:42:00,65.0,38.8,30.02,ENE,59,3.0,3.0,38,0.00,,,0.00,LWC V2.10 B1813,2013-08-03 15:42:00,
2013-08-03 07:47:00,65.1,39.5,30.02,ENE,59,1.0,4.0,39,0.00,,,0.00,LWC V2.10 B1813,2013-08-03 15:47:00,
2013-08-03 07:52:00,65.2,39.6,30.02,ENE,65,3.0,5.0,39,0.00,,,0.00,LWC V2.10 B1813,2013-08-03 15:52:00,
2013-08-03 07:57:00,65.5,39.9,30.02,ENE,69,4.0,4.0,39,0.00,,,0.00,LWC V2.10 B1813,2013-08-03 15:57:00,
2013-08-03 08:02:00,65.7,40.1,30.02,East,83,3.0,5.0,39,0.00,,,0.00,LWC V2.10 B1813,2013-08-03 16:02:00,
2013-08-03 08:07:00,65.6,40.6,30.02,ENE,66,0.0,2.0,40,0.00,,,0.00,LWC V2.10 B1813,2013-08-03 16:07:00,
2013-08-03 08:12:00,65.3,39.7,30.02,ENE,62,2.0,7.0,39,0.00,,,0.00,LWC V2.10 B1813,2013-08-03 16:12:00,
2013-08-03 08:17:00,65.1,40.8,30.02,ENE,67,4.0,4.0,41,0.00,,,0.00,LWC V2.10 B1813,2013-08-03 16:17:00,
2013-08-03 08:22:00,65.0,40.1,30.02,ENE,62,2.0,5.0,40,0.00,,,0.00,LWC V2.10 B1813,2013-08-03 16:22:00,
2013-08-03 08:27:00,65.3,40.4,30.02,ENE,64,3.0,7.0,40,0.00,,,0.00,LWC V2.10 B1813,2013-08-03 16:27:00,
2013-08-03 08:32:00,65.4,40.4,30.03,East,84,6.0,6.0,40,0.00,,,0.00,LWC V2.10 B1813,2013-08-03 16:32:00,
2013-08-03 08:37:00,65.5,40.5,30.03,ESE,107,0.0,7.0,40,0.00,,,0.00,LWC V2.10 B1813,2013-08-03 16:37:00,
2013-08-03 08:42:00,65.6,41.3,30.03,East,83,1.0,2.0,41,0.00,,,0.00,LWC V2.10 B1813,2013-08-03 16:42:00,
2013-08-03 08:47:00,65.6,41.3,30.03,ENE,67,0.0,4.0,41,0.00,,,0.00,LWC V2.10 B1813,2013-08-03 16:47:00,
2013-08-03 08:52:00,65.6,41.9,30.03,ENE,67,0.0,3.0,42,0.00,,,0.00,LWC V2.10 B1813,2013-08-03 16:52:00,
2013-08-03 08:57:00,65.6,44.8,30.03,ENE,67,0.0,1.0,47,0.00,,,0.00,LWC V2.10 B1813,2013-08-03 16:57:00,
2013-08-03 09:02:00,65.5,44.2,30.04,ENE,70,0.0,2.0,46,0.00,,,0.00,LWC V2.10 B1813,2013-08-03 17:02:00,
2013-08-03 09:07:00,65.3,44.0,30.03,ENE,68,0.0,1.0,46,0.00,,,0.00,LWC V2.10 B1813,2013-08-03 17:07:00,
2013-08-03 09:12:00,65.3,42.8,30.04,ENE,69,0.0,1.0,44,0.00,,,0.00,LWC V2.10 B1813,2013-08-03 17:12:00,
2013-08-03 09:17:00,65.6,45.4,30.04,ENE,69,0.0,1.0,48,0.00,,,0.00,LWC V2.10 B1813,2013-08-03 17:17:00,
2013-08-03 09:22:00,65.7,43.2,30.05,ENE,69,0.0,0.0,44,0.00,,,0.00,LWC V2.10 B1813,2013-08-03 17:22:00,
2013-08-03 09:27:00,65.9,44.5,30.05,ENE,68,0.0,0.0,46,0.00,,,0.00,LWC V2.10 B1813,2013-08-03 17:27:00,
2013-08-03 09:32:00,66.1,43.5,30.05,ENE,69,0.0,0.0,44,0.00,,,0.00,LWC V2.10 B1813,2013-08-03 17:32:00,
2013-08-03 09:37:00,66.1,43.5,30.05,ENE,69,0.0,1.0,44,0.00,,,0.00,LWC V2.10 B1813,2013-08-03 17:37:00,
2013-08-03 09:42:00,66.1,42.3,30.05,SE,130,0.0,2.0,42,0.00,,,0.00,LWC V2.10 B1813,2013-08-03 17:42:00,
2013-08-03 09:47:00,66.1,42.9,30.05,SE,130,0.0,1.0,43,0.00,,,0.00,LWC V2.10 B1813,2013-08-03 17:47:00,
2013-08-03 09:52:00,66.0,42.2,30.05,SE,129,0.0,1.0,42,0.00,,,0.00,LWC V2.10 B1813,2013-08-03 17:52:00,
2013-08-03 09:57:00,66.0,44.0,30.05,East,84,0.0,3.0,45,0.00,,,0.00,LWC V2.10 B1813,2013-08-03 17:57:00,
2013-08-03 10:02:00,66.0,42.9,30.05,East,85,0.0,2.0,43,0.00,,,0.00,LWC V2.10 B1813,2013-08-03 18:02:00,
2013-08-03 10:07:00,66.1,42.9,30.05,ENE,74,0.0,3.0,43,0.00,,,0.00,LWC V2.10 B1813,2013-08-03 18:07:00,
2013-08-03 10:12:00,66.3,42.5,30.05,East,86,0.0,2.0,42,0.00,,,0.00,LWC V2.10 B1813,2013-08-03 18:12:00,
2013-08-03 10:17:00,66.5,43.9,30.05,East,90,0.0,1.0,44,0.00,,,0.00,LWC V2.10 B1813,2013-08-03 18:17:00,
2013-08-03 10:22:00,66.7,42.9,30.05,East,90,0.0,3.0,42,0.00,,,0.00,LWC V2.10 B1813,2013-08-03 18:22:00,
2013-08-03 10:27:00,66.7,42.9,30.05,East,92,2.0,3.0,42,0.00,,,0.00,LWC V2.10 B1813,2013-08-03 18:27:00,
2013-08-03 10:32:00,66.8,43.6,30.05,East,88,0.0,2.0,43,0.00,,,0.00,LWC V2.10 B1813,2013-08-03 18:32:00,
2013-08-03 10:37:00,66.9,43.7,30.05,East,89,1.0,2.0,43,0.00,,,0.00,LWC V2.10 B1813,2013-08-03 18:37:00,
2013-08-03 10:42:00,66.9,44.9,30.05,East,89,2.0,2.0,45,0.00,,,0.00,LWC V2.10 B1813,2013-08-03 18:42:00,
2013-08-03 10:47:00,66.8,44.8,30.05,East,94,1.0,5.0,45,0.00,,,0.00,LWC V2.10 B1813,2013-08-03 18:47:00,
2013-08-03 10:52:00,66.7,44.1,30.05,ESE,102,1.0,5.0,44,0.00,,,0.00,LWC V2.10 B1813,2013-08-03 18:52:00,
2013-08-03 10:57:00,66.5,45.1,30.05,ESE,102,0.0,1.0,46,0.00,,,0.00,LWC V2.10 B1813,2013-08-03 18:57:00,
2013-08-03 11:02:00,66.4,44.4,30.06,ESE,102,0.0,0.0,45,0.00,,,0.00,LWC V2.10 B1813,2013-08-03 19:02:00,
2013-08-03 11:07:00,66.4,45.5,30.06,ESE,102,0.0,0.0,47,0.00,,,0.00,LWC V2.10 B1813,2013-08-03 19:07:00,
2013-08-03 11:12:00,66.3,47.1,30.06,ESE,103,3.0,3.0,50,0.00,,,0.00,LWC V2.10 B1813,2013-08-03 19:12:00,
2013-08-03 11:17:00,66.1,46.9,30.05,ENE,73,3.0,4.0,50,0.00,,,0.00,LWC V2.10 B1813,2013-08-03 19:17:00,
2013-08-03 11:22:00,66.1,47.4,30.05,ENE,74,2.0,6.0,51,0.00,,,0.00,LWC V2.10 B1813,2013-08-03 19:22:00,
2013-08-03 11:27:00,66.1,46.9,30.05,ENE,66,0.0,3.0,50,0.00,,,0.00,LWC V2.10 B1813,2013-08-03 19:27:00,
2013-08-03 11:32:00,66.3,44.9,30.05,ENE,62,2.0,3.0,46,0.00,,,0.00,LWC V2.10 B1813,2013-08-03 19:32:00,
2013-08-03 11:37:00,66.6,44.6,30.05,ENE,60,0.0,2.0,45,0.00,,,0.00,LWC V2.10 B1813,2013-08-03 19:37:00,
2013-08-03 11:42:00,67.1,44.5,30.05,ENE,59,1.0,4.0,44,0.00,,,0.00,LWC V2.10 B1813,2013-08-03 19:42:00,
2013-08-03 11:47:00,67.7,43.8,30.04,NE,44,0.0,2.0,42,0.00,,,0.00,LWC V2.10 B1813,2013-08-03 19:47:00,
2013-08-03 11:52:00,68.5,43.2,30.04,NE,49,0.0,1.0,40,0.00,,,0.00,LWC V2.10 B1813,2013-08-03 19:52:00,
2013-08-03 11:57:00,69.0,43.0,30.04,NE,42,2.0,4.0,39,0.00,,,0.00,LWC V2.10 B1813,2013-08-03 19:57:00,
2013-08-03 12:02:00,69.4,43.4,30.05,SE,125,3.0,6.0,39,0.00,,,0.00,LWC V2.10 B1813,2013-08-03 20:02:00,
2013-08-03 12:07:00,69.6,44.2,30.05,SSE,150,3.0,5.0,40,0.00,,,0.00,LWC V2.10 B1813,2013-08-03 20:07:00,
2013-08-03 12:12:00,69.6,44.8,30.06,ESE,117,1.0,6.0,41,0.00,,,0.00,LWC V2.10 B1813,2013-08-03 20:12:00,
2013-08-03 12:17:00,69.5,43.4,30.05,East,98,2.0,6.0,39,0.00,,,0.00,LWC V2.10 B1813,2013-08-03 20:17:00,
2013-08-03 12:22:00,69.3,43.9,30.06,ESE,119,7.0,7.0,40,0.00,,,0.00,LWC V2.10 B1813,2013-08-03 20:22:00,
2013-08-03 12:27:00,69.2,45.1,30.05,ESE,122,3.0,5.0,42,0.00,,,0.00,LWC V2.10 B1813,2013-08-03 20:27:00,
2013-08-03 12:32:00,69.2,45.1,30.05,ENE,76,4.0,7.0,42,0.00,,,0.00,LWC V2.10 B1813,2013-08-03 20:32:00,
2013-08-03 12:37:00,69.5,45.4,30.05,ESE,109,0.0,5.0,42,0.00,,,0.00,LWC V2.10 B1813,2013-08-03 20:37:00,
2013-08-03 12:42:00,70.1,45.3,30.05,SE,141,6.0,9.0,41,0.00,,,0.00,LWC V2.10 B1813,2013-08-03 20:42:00,
2013-08-03 12:47:00,70.7,45.8,30.05,ENE,76,5.0,10.0,41,0.00,,,0.00,LWC V2.10 B1813,2013-08-03 20:47:00,
2013-08-03 12:52:00,71.2,46.3,30.04,ESE,115,5.0,7.0,41,0.00,,,0.00,LWC V2.10 B1813,2013-08-03 20:52:00,
2013-08-03 12:57:00,71.9,46.3,30.05,ESE,123,8.0,10.0,40,0.00,,,0.00,LWC V2.10 B1813,2013-08-03 20:57:00,
2013-08-03 13:02:00,71.5,45.9,30.05,SE,146,4.0,10.0,40,0.00,,,0.00,LWC V2.10 B1813,2013-08-03 21:02:00,
2013-08-03 13:07:00,71.7,45.4,30.05,SE,135,6.0,10.0,39,0.00,,,0.00,LWC V2.10 B1813,2013-08-03 21:07:00,
2013-08-03 13:12:00,72.5,46.1,30.05,East,90,6.0,8.0,39,0.00,,,0.00,LWC V2.10 B1813,2013-08-03 21:12:00,
2013-08-03 13:17:00,72.7,46.3,30.05,ENE,76,3.0,4.0,39,0.00,,,0.00,LWC V2.10 B1813,2013-08-03 21:17:00,
2013-08-03 13:22:00,73.0,45.2,30.05,SSE,157,2.0,9.0,37,0.00,,,0.00,LWC V2.10 B1813,2013-08-03 21:22:00,
2013-08-03 13:27:00,73.1,46.0,30.05,ESE,123,3.0,8.0,38,0.00,,,0.00,LWC V2.10 B1813,2013-08-03 21:27:00,
2013-08-03 13:32:00,73.5,46.3,30.05,SSE,150,6.0,14.0,38,0.00,,,0.00,LWC V2.10 B1813,2013-08-03 21:32:00,
2013-08-03 13:37:00,73.1,46.0,30.05,ESE,116,3.0,5.0,38,0.00,,,0.00,LWC V2.10 B1813,2013-08-03 21:37:00,
2013-08-03 13:42:00,73.5,46.3,30.05,ESE,114,8.0,12.0,38,0.00,,,0.00,LWC V2.10 B1813,2013-08-03 21:42:00,
2013-08-03 13:47:00,73.9,45.2,30.05,SSE,168,6.0,15.0,36,0.00,,,0.00,LWC V2.10 B1813,2013-08-03 21:47:00,
2013-08-03 13:52:00,74.3,45.6,30.05,ESE,121,8.0,9.0,36,0.00,,,0.00,LWC V2.10 B1813,2013-08-03 21:52:00,
2013-08-03 13:57:00,74.5,45.8,30.04,ENE,76,8.0,13.0,36,0.00,,,0.00,LWC V2.10 B1813,2013-08-03 21:57:00,
2013-08-03 14:02:00,74.4,45.7,30.04,SE,144,2.0,7.0,36,0.00,,,0.00,LWC V2.10 B1813,2013-08-03 22:02:00,
2013-08-03 14:07:00,74.7,46.0,30.04,ESE,120,10.0,15.0,36,0.00,,,0.00,LWC V2.10 B1813,2013-08-03 22:07:00,
2013-08-03 14:12:00,74.3,46.3,30.05,SSE,167,0.0,3.0,37,0.00,,,0.00,LWC V2.10 B1813,2013-08-03 22:12:00,
2013-08-03 14:17:00,74.1,46.1,30.05,SE,135,7.0,9.0,37,0.00,,,0.00,LWC V2.10 B1813,2013-08-03 22:17:00,
2013-08-03 14:22:00,73.7,46.5,30.05,ESE,109,4.0,9.0,38,0.00,,,0.00,LWC V2.10 B1813,2013-08-03 22:22:00,
2013-08-03 14:27:00,73.7,47.2,30.05,SSE,150,4.0,10.0,39,0.00,,,0.00,LWC V2.10 B1813,2013-08-03 22:27:00,
2013-08-03 14:32:00,74.0,46.8,30.05,ESE,103,3.0,10.0,38,0.00,,,0.00,LWC V2.10 B1813,2013-08-03 22:32:00,
2013-08-03 14:37:00,74.6,46.6,30.04,SE,126,4.0,6.0,37,0.00,,,0.00,LWC V2.10 B1813,2013-08-03 22:37:00,
2013-08-03 14:42:00,75.4,45.8,30.04,ESE,121,8.0,12.0,35,0.00,,,0.00,LWC V2.10 B1813,2013-08-03 22:42:00,
2013-08-03 14:47:00,75.6,46.0,30.04,ESE,105,7.0,13.0,35,0.00,,,0.00,LWC V2.10 B1813,2013-08-03 22:47:00,
2013-08-03 14:52:00,75.5,45.9,30.04,ENE,75,4.0,9.0,35,0.00,,,0.00,LWC V2.10 B1813,2013-08-03 22:52:00,
2013-08-03 14:57:00,75.9,45.5,30.03,ESE,113,13.0,13.0,34,0.00,,,0.00,LWC V2.10 B1813,2013-08-03 22:57:00,
2013-08-03 15:02:00,76.3,45.8,30.03,East,92,8.0,9.0,34,0.00,,,0.00,LWC V2.10 B1813,2013-08-03 23:02:00,
2013-08-03 15:07:00,76.6,46.1,30.03,ESE,121,8.0,11.0,34,0.00,,,0.00,LWC V2.10 B1813,2013-08-03 23:07:00,
2013-08-03 15:12:00,76.9,45.6,30.03,SE,136,7.0,9.0,33,0.00,,,0.00,LWC V2.10 B1813,2013-08-03 23:12:00,
2013-08-03 15:17:00,76.9,45.6,30.03,ESE,115,4.0,10.0,33,0.00,,,0.00,LWC V2.10 B1813,2013-08-03 23:17:00,
2013-08-03 15:22:00,76.5,45.2,30.03,East,90,9.0,11.0,33,0.00,,,0.00,LWC V2.10 B1813,2013-08-03 23:22:00,
2013-08-03 15:27:00,76.6,46.1,30.03,ESE,114,4.0,12.0,34,0.00,,,0.00,LWC V2.10 B1813,2013-08-03 23:27:00,
2013-08-03 15:32:00,77.0,46.5,30.03,SSE,164,11.0,11.0,34,0.00,,,0.00,LWC V2.10 B1813,2013-08-03 23:32:00,
2013-08-03 15:37:00,77.4,45.2,30.03,ESE,121,5.0,5.0,32,0.00,,,0.00,LWC V2.10 B1813,2013-08-03 23:37:00,
2013-08-03 15:42:00,77.5,46.1,30.03,ESE,105,3.0,14.0,33,0.00,,,0.00,LWC V2.10 B1813,2013-08-03 23:42:00,
2013-08-03 15:47:00,77.0,45.7,30.03,ESE,116,11.0,11.0,33,0.00,,,0.00,LWC V2.10 B1813,2013-08-03 23:47:00,
2013-08-03 15:52:00,77.1,46.5,30.02,ESE,110,2.0,4.0,34,0.00,,,0.00,LWC V2.10 B1813,2013-08-03 23:52:00,
2013-08-03 15:57:00,77.3,46.7,30.02,East,101,9.0,11.0,34,0.00,,,0.00,LWC V2.10 B1813,2013-08-03 23:57:00,
2013-08-03 16:02:00,77.7,46.3,30.02,ESE,116,3.0,9.0,33,0.00,,,0.00,LWC V2.10 B1813,2013-08-04 00:02:00,
2013-08-03 16:07:00,77.6,46.2,30.02,SSE,167,3.0,11.0,33,0.00,,,0.00,LWC V2.10 B1813,2013-08-04 00:07:00,
2013-08-03 16:12:00,77.8,46.4,30.02,SSE,167,1.0,10.0,33,0.00,,,0.00,LWC V2.10 B1813,2013-08-04 00:12:00,
2013-08-03 16:17:00,77.9,46.5,30.02,South,169,0.0,4.0,33,0.00,,,0.00,LWC V2.10 B1813,2013-08-04 00:17:00,
2013-08-03 16:22:00,78.0,47.3,30.02,SSE,159,0.0,8.0,34,0.00,,,0.00,LWC V2.10 B1813,2013-08-04 00:22:00,
2013-08-03 16:27:00,78.2,47.5,30.02,SSW,202,0.0,7.0,34,0.00,,,0.00,LWC V2.10 B1813,2013-08-04 00:27:00,
2013-08-03 16:32:00,78.2,46.7,30.02,SSE,159,0.0,7.0,33,0.00,,,0.00,LWC V2.10 B1813,2013-08-04 00:32:00,
2013-08-03 16:37:00,78.1,46.6,30.02,SSE,147,6.0,10.0,33,0.00,,,0.00,LWC V2.10 B1813,2013-08-04 00:37:00,
2013-08-03 16:42:00,78.0,46.5,30.02,SSW,205,4.0,10.0,33,0.00,,,0.00,LWC V2.10 B1813,2013-08-04 00:42:00,
2013-08-03 16:47:00,77.9,46.5,30.02,SSW,192,7.0,8.0,33,0.00,,,0.00,LWC V2.10 B1813,2013-08-04 00:47:00,
2013-08-03 16:52:00,78.0,46.5,30.02,SE,146,0.0,2.0,33,0.00,,,0.00,LWC V2.10 B1813,2013-08-04 00:52:00,
2013-08-03 16:57:00,78.0,46.5,30.02,South,181,0.0,9.0,33,0.00,,,0.00,LWC V2.10 B1813,2013-08-04 00:57:00,
2013-08-03 17:02:00,78.2,46.7,30.02,SSW,200,7.0,10.0,33,0.00,,,0.00,LWC V2.10 B1813,2013-08-04 01:02:00,
2013-08-03 17:07:00,78.3,47.6,30.02,SW,223,5.0,11.0,34,0.00,,,0.00,LWC V2.10 B1813,2013-08-04 01:07:00,
2013-08-03 17:12:00,78.5,47.0,30.03,SSW,208,13.0,16.0,33,0.00,,,0.00,LWC V2.10 B1813,2013-08-04 01:12:00,
2013-08-03 17:17:00,78.8,46.4,30.02,SW,217,9.0,17.0,32,0.00,,,0.00,LWC V2.10 B1813,2013-08-04 01:17:00,
2013-08-03 17:22:00,78.9,46.5,30.03,SW,218,6.0,10.0,32,0.00,,,0.00,LWC V2.10 B1813,2013-08-04 01:22:00,
2013-08-03 17:27:00,78.9,46.5,30.02,SSE,167,0.0,8.0,32,0.00,,,0.00,LWC V2.10 B1813,2013-08-04 01:27:00,
2013-08-03 17:32:00,78.9,46.5,30.03,SSE,154,2.0,8.0,32,0.00,,,0.00,LWC V2.10 B1813,2013-08-04 01:32:00,
2013-08-03 17:37:00,78.7,46.3,30.02,South,190,2.0,12.0,32,0.00,,,0.00,LWC V2.10 B1813,2013-08-04 01:37:00,
2013-08-03 17:42:00,78.4,46.9,30.03,SSW,205,3.0,13.0,33,0.00,,,0.00,LWC V2.10 B1813,2013-08-04 01:42:00,
2013-08-03 17:47:00,77.8,46.4,30.03,South,182,3.0,10.0,33,0.00,,,0.00,LWC V2.10 B1813,2013-08-04 01:47:00,
2013-08-03 17:52:00,77.2,46.6,30.03,SSE,161,1.0,7.0,34,0.00,,,0.00,LWC V2.10 B1813,2013-08-04 01:52:00,
2013-08-03 17:57:00,76.3,46.6,30.03,SSW,213,7.0,11.0,35,0.00,,,0.00,LWC V2.10 B1813,2013-08-04 01:57:00,
2013-08-03 18:02:00,75.7,46.1,30.03,South,187,6.0,13.0,35,0.00,,,0.00,LWC V2.10 B1813,2013-08-04 02:02:00,
2013-08-03 18:07:00,75.5,45.9,30.03,SW,219,4.0,6.0,35,0.00,,,0.00,LWC V2.10 B1813,2013-08-04 02:07:00,
2013-08-03 18:12:00,75.4,45.8,30.03,South,182,1.0,7.0,35,0.00,,,0.00,LWC V2.10 B1813,2013-08-04 02:12:00,
2013-08-03 18:17:00,75.5,46.7,30.03,WSW,240,5.0,11.0,36,0.00,,,0.00,LWC V2.10 B1813,2013-08-04 02:17:00,
2013-08-03 18:22:00,75.6,46.0,30.03,WSW,245,6.0,12.0,35,0.00,,,0.00,LWC V2.10 B1813,2013-08-04 02:22:00,
2013-08-03 18:27:00,75.7,46.1,30.03,South,189,0.0,7.0,35,0.00,,,0.00,LWC V2.10 B1813,2013-08-04 02:27:00,
2013-08-03 18:32:00,75.7,46.8,30.03,SSW,200,1.0,14.0,36,0.00,,,0.00,LWC V2.10 B1813,2013-08-04 02:32:00,
2013-08-03 18:37:00,75.4,47.3,30.04,SE,146,0.0,10.0,37,0.00,,,0.00,LWC V2.10 B1813,2013-08-04 02:37:00,
2013-08-03 18:42:00,75.1,47.0,30.04,SSW,207,7.0,10.0,37,0.00,,,0.00,LWC V2.10 B1813,2013-08-04 02:42:00,
2013-08-03 18:47:00,74.8,47.5,30.04,SSW,207,0.0,4.0,38,0.00,,,0.00,LWC V2.10 B1813,2013-08-04 02:47:00,
2013-08-03 18:52:00,74.4,47.8,30.04,SSW,210,0.0,2.0,39,0.00,,,0.00,LWC V2.10 B1813,2013-08-04 02:52:00,
2013-08-03 18:57:00,73.9,48.7,30.04,SW,218,1.0,8.0,41,0.00,,,0.00,LWC V2.10 B1813,2013-08-04 02:57:00,
2013-08-03 19:02:00,73.2,48.1,30.04,SSW,203,0.0,8.0,41,0.00,,,0.00,LWC V2.10 B1813,2013-08-04 03:02:00,
2013-08-03 19:07:00,72.6,48.2,30.04,SW,232,4.0,9.0,42,0.00,,,0.00,LWC V2.10 B1813,2013-08-04 03:07:00,
2013-08-03 19:12:00,72.1,47.7,30.04,SSW,209,5.0,16.0,42,0.00,,,0.00,LWC V2.10 B1813,2013-08-04 03:12:00,
2013-08-03 19:17:00,71.5,47.2,30.04,SSW,200,0.0,11.0,42,0.00,,,0.00,LWC V2.10 B1813,2013-08-04 03:17:00,
2013-08-03 19:22:00,71.1,48.1,30.04,SW,221,0.0,2.0,44,0.00,,,0.00,LWC V2.10 B1813,2013-08-04 03:22:00,
2013-08-03 19:27:00,70.7,48.3,30.04,WSW,243,3.0,13.0,45,0.00,,,0.00,LWC V2.10 B1813,2013-08-04 03:27:00,
2013-08-03 19:32:00,70.3,47.9,30.04,SW,219,8.0,13.0,45,0.00,,,0.00,LWC V2.10 B1813,2013-08-04 03:32:00,
2013-08-03 19:37:00,69.9,48.2,30.04,SW,230,5.0,6.0,46,0.00,,,0.00,LWC V2.10 B1813,2013-08-04 03:37:00,
2013-08-03 19:42:00,69.5,49.5,30.04,West,266,5.0,13.0,49,0.00,,,0.00,LWC V2.10 B1813,2013-08-04 03:42:00,
2013-08-03 19:47:00,69.0,50.1,30.03,North,0,6.0,12.0,51,0.00,,,0.00,LWC V2.10 B1813,2013-08-04 03:47:00,
2013-08-03 19:52:00,68.5,48.6,30.03,SW,217,0.0,4.0,49,0.00,,,0.00,LWC V2.10 B1813,2013-08-04 03:52:00,
2013-08-03 19:57:00,68.6,46.4,30.04,SSW,202,2.0,5.0,45,0.00,,,0.00,LWC V2.10 B1813,2013-08-04 03:57:00,
2013-08-03 20:01:00,68.9,48.4,30.04,WSW,244,9.0,10.0,48,0.00,,,0.00,LWC V2.10 B1813,2013-08-04 04:01:00,
2013-08-03 20:06:00,69.4,47.7,30.04,SW,222,3.0,12.0,46,0.00,,,0.00,LWC V2.10 B1813,2013-08-04 04:06:00,
2013-08-03 20:11:00,69.9,48.2,30.05,SW,234,5.0,8.0,46,0.00,,,0.00,LWC V2.10 B1813,2013-08-04 04:11:00,
2013-08-03 20:16:00,70.0,47.7,30.05,SW,215,2.0,15.0,45,0.00,,,0.00,LWC V2.10 B1813,2013-08-04 04:16:00,
2013-08-03 20:21:00,69.9,48.2,30.05,South,188,0.0,5.0,46,0.00,,,0.00,LWC V2.10 B1813,2013-08-04 04:21:00,
2013-08-03 20:26:00,69.7,48.0,30.05,SW,226,3.0,5.0,46,0.00,,,0.00,LWC V2.10 B1813,2013-08-04 04:26:00,
2013-08-03 20:31:00,69.4,47.7,30.05,SW,217,9.0,9.0,46,0.00,,,0.00,LWC V2.10 B1813,2013-08-04 04:31:00,
2013-08-03 20:36:00,69.2,47.5,30.05,SSE,163,2.0,5.0,46,0.00,,,0.00,LWC V2.10 B1813,2013-08-04 04:36:00,
2013-08-03 20:41:00,69.0,47.9,30.05,SSE,154,1.0,4.0,47,0.00,,,0.00,LWC V2.10 B1813,2013-08-04 04:41:00,
2013-08-03 20:46:00,68.9,47.8,30.05,South,180,7.0,7.0,47,0.00,,,0.00,LWC V2.10 B1813,2013-08-04 04:46:00,
2013-08-03 20:51:00,68.9,47.3,30.06,ESE,120,9.0,9.0,46,0.00,,,0.00,LWC V2.10 B1813,2013-08-04 04:51:00,
2013-08-03 20:56:00,68.9,47.3,30.06,ESE,109,3.0,4.0,46,0.00,,,0.00,LWC V2.10 B1813,2013-08-04 04:56:00,
2013-08-03 21:01:00,68.8,47.2,30.05,SSE,160,5.0,12.0,46,0.00,,,0.00,LWC V2.10 B1813,2013-08-04 05:01:00,
2013-08-03 21:06:00,68.6,47.0,30.05,SSE,167,7.0,11.0,46,0.00,,,0.00,LWC V2.10 B1813,2013-08-04 05:06:00,
2013-08-03 21:11:00,68.5,48.0,30.06,South,175,2.0,13.0,48,0.00,,,0.00,LWC V2.10 B1813,2013-08-04 05:11:00,
2013-08-03 21:16:00,68.3,47.3,30.06,SW,214,2.0,7.0,47,0.00,,,0.00,LWC V2.10 B1813,2013-08-04 05:16:00,
2013-08-03 21:21:00,68.2,47.8,30.07,SSE,168,1.0,7.0,48,0.00,,,0.00,LWC V2.10 B1813,2013-08-04 05:21:00,
2013-08-03 21:26:00,68.1,47.7,30.07,SW,224,3.0,10.0,48,0.00,,,0.00,LWC V2.10 B1813,2013-08-04 05:26:00,
2013-08-03 21:31:00,68.0,47.6,30.07,SW,217,0.0,12.0,48,0.00,,,0.00,LWC V2.10 B1813,2013-08-04 05:31:00,
2013-08-03 21:36:00,67.8,47.9,30.07,SSE,161,0.0,8.0,49,0.00,,,0.00,LWC V2.10 B1813,2013-08-04 05:36:00,
2013-08-03 21:41:00,67.4,47.6,30.07,SSW,194,6.0,7.0,49,0.00,,,0.00,LWC V2.10 B1813,2013-08-04 05:41:00,
2013-08-03 21:46:00,67.2,47.4,30.07,SSE,162,4.0,7.0,49,0.00,,,0.00,LWC V2.10 B1813,2013-08-04 05:46:00,
2013-08-03 21:51:00,67.0,47.7,30.08,South,190,1.0,15.0,50,0.00,,,0.00,LWC V2.10 B1813,2013-08-04 05:51:00,
2013-08-03 21:56:00,67.0,46.7,30.08,SW,235,4.0,11.0,48,0.00,,,0.00,LWC V2.10 B1813,2013-08-04 05:56:00,
2013-08-03 22:01:00,67.0,47.2,30.08,WSW,253,0.0,11.0,49,0.00,,,0.00,LWC V2.10 B1813,2013-08-04 06:01:00,
2013-08-03 22:06:00,66.9,47.6,30.07,SSE,164,0.0,6.0,50,0.00,,,0.00,LWC V2.10 B1813,2013-08-04 06:06:00,
2013-08-03 22:11:00,66.8,45.9,30.07,SSE,148,2.0,8.0,47,0.00,,,0.00,LWC V2.10 B1813,2013-08-04 06:11:00,
2013-08-03 22:16:00,66.9,46.0,30.07,South,190,0.0,8.0,47,0.00,,,0.00,LWC V2.10 B1813,2013-08-04 06:16:00,
2013-08-03 22:21:00,67.0,46.1,30.07,SE,126,5.0,7.0,47,0.00,,,0.00,LWC V2.10 B1813,2013-08-04 06:21:00,
2013-08-03 22:26:00,67.1,46.2,30.07,South,184,4.0,9.0,47,0.00,,,0.00,LWC V2.10 B1813,2013-08-04 06:26:00,
2013-08-03 22:31:00,67.0,46.1,30.07,SSE,153,0.0,5.0,47,0.00,,,0.00,LWC V2.10 B1813,2013-08-04 06:31:00,
2013-08-03 22:36:00,66.9,46.0,30.07,SSE,161,0.0,1.0,47,0.00,,,0.00,LWC V2.10 B1813,2013-08-04 06:36:00,
2013-08-03 22:41:00,66.7,45.8,30.07,SSE,155,3.0,3.0,47,0.00,,,0.00,LWC V2.10 B1813,2013-08-04 06:41:00,
2013-08-03 22:46:00,66.5,45.6,30.08,South,186,1.0,2.0,47,0.00,,,0.00,LWC V2.10 B1813,2013-08-04 06:46:00,
2013-08-03 22:51:00,66.3,45.5,30.08,SE,144,6.0,6.0,47,0.00,,,0.00,LWC V2.10 B1813,2013-08-04 06:51:00,
2013-08-03 22:56:00,66.2,45.9,30.08,SSE,157,3.0,4.0,48,0.00,,,0.00,LWC V2.10 B1813,2013-08-04 06:56:00,
2013-08-03 23:01:00,66.0,46.3,30.08,SSE,149,2.0,6.0,49,0.00,,,0.00,LWC V2.10 B1813,2013-08-04 07:01:00,
2013-08-03 23:06:00,65.9,46.2,30.08,SSE,154,5.0,5.0,49,0.00,,,0.00,LWC V2.10 B1813,2013-08-04 07:06:00,
2013-08-03 23:11:00,65.9,46.7,30.08,SSE,167,3.0,5.0,50,0.00,,,0.00,LWC V2.10 B1813,2013-08-04 07:11:00,
2013-08-03 23:16:00,65.8,46.1,30.09,SW,216,1.0,13.0,49,0.00,,,0.00,LWC V2.10 B1813,2013-08-04 07:16:00,
2013-08-03 23:21:00,65.7,46.0,30.08,SSW,193,0.0,17.0,49,0.00,,,0.00,LWC V2.10 B1813,2013-08-04 07:21:00,
2013-08-03 23:26:00,65.7,46.0,30.09,South,171,1.0,6.0,49,0.00,,,0.00,LWC V2.10 B1813,2013-08-04 07:26:00,
2013-08-03 23:31:00,65.5,45.8,30.09,SSW,200,5.0,9.0,49,0.00,,,0.00,LWC V2.10 B1813,2013-08-04 07:31:00,
2013-08-03 23:36:00,65.4,45.7,30.09,South,186,2.0,3.0,49,0.00,,,0.00,LWC V2.10 B1813,2013-08-04 07:36:00,
2013-08-03 23:41:00,65.2,45.0,30.10,South,182,10.0,12.0,48,0.00,,,0.00,LWC V2.10 B1813,2013-08-04 07:41:00,
2013-08-03 23:46:00,65.0,44.3,30.10,SW,222,4.0,17.0,47,0.00,,,0.00,LWC V2.10 B1813,2013-08-04 07:46:00,
2013-08-03 23:51:00,64.9,45.3,30.10,SSW,206,11.0,16.0,49,0.00,,,0.00,LWC V2.10 B1813,2013-08-04 07:51:00,
2013-08-03 23:56:00,64.7,44.0,30.10,South,186,10.0,15.0,47,0.00,,,0.00,LWC V2.10 B1813,2013-08-04 07:56:00,